createdAt,value
2023-02-13T00:00:19.102Z,56.47
2023-02-13T00:02:45.836Z,60.40
2023-02-13T00:07:39.197Z,50.00
2023-02-13T00:10:06.896Z,59.72
2023-02-13T00:12:33.759Z,52.33
2023-02-13T00:15:00.588Z,49.83
2023-02-13T00:19:54.015Z,49.40
2023-02-13T00:24:47.359Z,46.65
2023-02-13T00:29:40.847Z,55.35
2023-02-13T00:34:34.398Z,51.85
2023-02-13T00:37:03.400Z,43.30
2023-02-13T00:39:30.209Z,45.97
2023-02-13T00:41:56.898Z,49.58
2023-02-13T00:46:50.255Z,43.20
2023-02-13T00:49:17.265Z,51.40
2023-02-13T00:54:10.586Z,51.38
2023-02-13T00:56:37.332Z,46.47
2023-02-13T00:59:06.275Z,49.17
2023-02-13T01:01:33.004Z,46.33
2023-02-13T01:03:59.998Z,53.33
2023-02-13T01:06:27.857Z,50.42
2023-02-13T01:08:54.569Z,54.38
2023-02-13T01:11:21.356Z,48.78
2023-02-13T01:13:48.308Z,56.53
2023-02-13T01:16:17.899Z,44.03
2023-02-13T01:18:44.702Z,48.58
2023-02-13T01:23:43.333Z,50.22
2023-02-13T01:26:22.915Z,49.90
2023-02-13T01:28:55.511Z,51.40
2023-02-13T01:31:22.664Z,52.15
2023-02-13T01:33:50.750Z,47.50
2023-02-13T01:36:21.172Z,49.33
2023-02-13T01:38:47.842Z,55.15
2023-02-13T01:43:54.728Z,51.15
2023-02-13T01:46:36.070Z,48.10
2023-02-13T01:49:18.544Z,48.78
2023-02-13T01:51:47.290Z,51.33
2023-02-13T01:54:19.211Z,47.05
2023-02-13T01:56:52.235Z,48.55
2023-02-13T01:59:29.984Z,50.30
2023-02-13T02:01:58.396Z,41.92
2023-02-13T02:04:31.877Z,47.28
2023-02-13T02:07:03.149Z,50.45
2023-02-13T02:09:37.400Z,44.80
2023-02-13T02:12:27.410Z,40.90
2023-02-13T02:14:57.856Z,39.72
2023-02-13T02:17:26.345Z,36.03
2023-02-13T02:20:08.397Z,39.42
2023-02-13T02:23:08.459Z,42.50
2023-02-13T02:26:06.262Z,43.92
2023-02-13T02:28:33.868Z,44.83
2023-02-13T02:31:13.485Z,42.78
2023-02-13T02:34:10.217Z,42.33
2023-02-13T02:36:45.462Z,44.55
2023-02-13T02:39:35.235Z,39.72
2023-02-13T02:42:30.113Z,49.55
2023-02-13T02:45:07.026Z,41.17
2023-02-13T02:48:02.329Z,40.33
2023-02-13T02:50:34.645Z,37.90
2023-02-13T02:53:19.128Z,37.40
2023-02-13T02:56:18.056Z,41.40
2023-02-13T02:59:22.708Z,39.13
2023-02-13T03:02:10.021Z,37.83
2023-02-13T03:05:00.765Z,41.45
2023-02-13T03:07:27.796Z,39.78
2023-02-13T03:10:51.522Z,37.10
2023-02-13T03:13:39.348Z,37.03
2023-02-13T03:19:14.780Z,36.53
2023-02-13T03:22:13.315Z,39.88
2023-02-13T03:25:01.033Z,37.90
2023-02-13T03:28:16.472Z,37.10
2023-02-13T03:30:51.685Z,34.88
2023-02-13T03:33:57.731Z,38.72
2023-02-13T03:36:52.377Z,36.13
2023-02-13T03:39:26.765Z,35.75
2023-02-13T03:42:02.508Z,41.63
2023-02-13T03:44:40.624Z,37.78
2023-02-13T03:47:09.633Z,33.63
2023-02-13T03:50:00.748Z,39.05
2023-02-13T03:52:46.441Z,43.50
2023-02-13T03:55:40.838Z,38.33
2023-02-13T03:58:38.476Z,34.75
2023-02-13T04:01:08.236Z,37.75
2023-02-13T04:03:48.875Z,36.83
2023-02-13T04:06:20.289Z,38.50
2023-02-13T04:08:47.207Z,34.17
2023-02-13T04:11:20.068Z,35.88
2023-02-13T04:13:56.721Z,35.03
2023-02-13T04:16:38.794Z,36.65
2023-02-13T04:19:07.438Z,38.35
2023-02-13T04:21:35.545Z,40.10
2023-02-13T04:24:02.534Z,36.75
2023-02-13T04:26:34.675Z,40.15
2023-02-13T04:29:01.416Z,31.77
2023-02-13T04:31:28.355Z,33.67
2023-02-13T04:33:55.094Z,33.60
2023-02-13T04:38:48.308Z,35.33
2023-02-13T04:43:41.741Z,34.85
2023-02-13T04:46:08.591Z,36.47
2023-02-13T04:48:36.712Z,33.35
2023-02-13T04:51:04.670Z,30.67
2023-02-13T04:53:31.391Z,30.08
2023-02-13T04:58:24.641Z,32.35
2023-02-13T05:03:17.923Z,36.13
2023-02-13T05:08:11.416Z,25.98
2023-02-13T05:13:04.868Z,25.25
2023-02-13T05:17:58.679Z,27.60
2023-02-13T05:20:25.632Z,27.38
2023-02-13T05:23:13.040Z,27.92
2023-02-13T05:25:41.594Z,27.83
2023-02-13T05:28:28.609Z,25.45
2023-02-13T05:30:55.625Z,29.50
2023-02-13T05:33:22.485Z,29.27
2023-02-13T05:35:49.320Z,26.67
2023-02-13T05:38:16.747Z,26.38
2023-02-13T05:40:43.472Z,26.08
2023-02-13T05:45:36.713Z,25.92
2023-02-13T05:50:30.068Z,28.27
2023-02-13T05:55:23.500Z,32.53
2023-02-13T05:57:50.162Z,29.10
2023-02-13T06:02:43.783Z,33.70
2023-02-13T06:05:10.623Z,32.13
2023-02-13T06:10:04.141Z,38.83
2023-02-13T06:12:30.792Z,35.90
2023-02-13T06:17:24.017Z,36.00
2023-02-13T06:22:17.292Z,29.88
2023-02-13T06:27:10.554Z,31.85
2023-02-13T06:32:03.990Z,32.17
2023-02-13T06:34:30.678Z,37.03
2023-02-13T06:39:24.149Z,37.83
2023-02-13T06:44:17.515Z,43.25
2023-02-13T06:49:10.992Z,34.25
2023-02-13T06:51:37.715Z,40.75
2023-02-13T06:56:30.945Z,31.50
2023-02-13T07:01:24.379Z,38.00
2023-02-13T07:03:51.182Z,47.78
2023-02-13T07:08:46.134Z,39.90
2023-02-13T07:11:24.034Z,43.85
2023-02-13T07:13:50.755Z,47.13
2023-02-13T07:18:44.125Z,44.53
2023-02-13T07:23:37.728Z,40.65
2023-02-13T07:28:31.606Z,42.20
2023-02-13T07:31:03.174Z,45.10
2023-02-13T07:33:30.036Z,47.00
2023-02-13T07:35:56.713Z,40.83
2023-02-13T07:40:50.016Z,43.65
2023-02-13T07:45:43.508Z,49.40
2023-02-13T07:48:10.255Z,47.20
2023-02-13T07:50:37.033Z,46.53
2023-02-13T07:55:31.006Z,57.35
2023-02-13T07:57:59.725Z,39.53
2023-02-13T08:00:26.586Z,50.33
2023-02-13T08:02:53.281Z,46.88
2023-02-13T08:07:46.549Z,46.17
2023-02-13T08:12:59.415Z,47.28
2023-02-13T08:15:26.233Z,40.50
2023-02-13T08:17:52.972Z,43.22
2023-02-13T08:22:46.418Z,44.53
2023-02-13T08:27:40.359Z,39.75
2023-02-13T08:32:44.863Z,44.88
2023-02-13T08:35:18.745Z,40.95
2023-02-13T08:40:14.509Z,39.25
2023-02-13T08:42:41.274Z,48.85
2023-02-13T08:45:10.380Z,56.15
2023-02-13T08:47:37.666Z,60.28
2023-02-13T08:50:04.767Z,48.95
2023-02-13T08:52:31.568Z,50.83
2023-02-13T08:54:58.258Z,48.53
2023-02-13T08:59:51.567Z,45.72
2023-02-13T09:04:45.053Z,42.88
2023-02-13T09:07:12.388Z,48.20
2023-02-13T09:09:39.198Z,46.55
2023-02-13T09:12:06.124Z,45.75
2023-02-13T09:14:33.610Z,51.90
2023-02-13T09:17:00.496Z,45.90
2023-02-13T09:19:27.215Z,48.47
2023-02-13T09:21:53.921Z,56.03
2023-02-13T09:26:47.266Z,59.35
2023-02-13T09:29:14.097Z,51.10
2023-02-13T09:34:07.568Z,55.30
2023-02-13T09:39:03.038Z,47.65
2023-02-13T09:41:37.321Z,55.55
2023-02-13T09:44:33.795Z,47.80
2023-02-13T09:47:24.602Z,48.10
2023-02-13T09:49:56.893Z,51.20
2023-02-13T09:52:23.878Z,44.47
2023-02-13T09:54:50.513Z,44.20
2023-02-13T09:57:27.494Z,46.85
2023-02-13T10:00:19.925Z,45.15
2023-02-13T10:02:58.389Z,42.13
2023-02-13T10:05:59.049Z,48.63
2023-02-13T10:08:40.570Z,46.15
2023-02-13T10:11:26.162Z,46.08
2023-02-13T10:14:17.763Z,44.42
2023-02-13T10:17:16.238Z,50.33
2023-02-13T10:19:48.894Z,51.90
2023-02-13T10:22:20.290Z,56.85
2023-02-13T10:25:08.408Z,44.80
2023-02-13T10:27:41.011Z,46.63
2023-02-13T10:30:48.949Z,45.95
2023-02-13T10:33:28.622Z,55.78
2023-02-13T10:36:15.294Z,50.92
2023-02-13T10:38:50.186Z,46.35
2023-02-13T10:41:31.691Z,51.97
2023-02-13T10:44:32.008Z,54.83
2023-02-13T10:47:13.899Z,51.13
2023-02-13T10:49:52.538Z,44.35
2023-02-13T10:52:27.509Z,47.00
2023-02-13T10:55:09.084Z,40.58
2023-02-13T10:58:06.040Z,46.38
2023-02-13T11:01:14.568Z,49.45
2023-02-13T11:03:41.400Z,46.28
2023-02-13T11:08:40.277Z,44.78
2023-02-13T11:11:30.458Z,50.92
2023-02-13T11:14:15.314Z,46.88
2023-02-13T11:16:53.694Z,43.20
2023-02-13T11:19:46.793Z,47.28
2023-02-13T11:22:26.135Z,47.80
2023-02-13T11:24:57.924Z,49.08
2023-02-13T11:27:29.727Z,44.78
2023-02-13T11:30:03.591Z,47.80
2023-02-13T11:32:33.132Z,48.13
2023-02-13T11:35:25.925Z,46.83
2023-02-13T11:38:18.150Z,45.72
2023-02-13T11:41:04.654Z,42.55
2023-02-13T11:44:01.363Z,45.00
2023-02-13T11:46:42.826Z,42.45
2023-02-13T11:49:25.323Z,38.97
2023-02-13T11:52:04.531Z,37.55
2023-02-13T11:54:45.640Z,38.80
2023-02-13T11:57:36.256Z,39.40
2023-02-13T12:00:28.925Z,33.42
2023-02-13T12:02:55.953Z,33.35
2023-02-13T12:05:24.175Z,29.48
2023-02-13T12:07:51.209Z,28.33
2023-02-13T12:10:36.736Z,33.47
2023-02-13T12:13:37.540Z,33.92
2023-02-13T12:16:12.798Z,31.05
2023-02-13T12:18:44.182Z,35.30
2023-02-13T12:21:49.227Z,33.30
2023-02-13T12:24:51.771Z,28.70
2023-02-13T12:27:28.104Z,31.08
2023-02-13T12:30:14.236Z,30.27
2023-02-13T12:33:08.170Z,31.48
2023-02-13T12:36:11.172Z,28.02
2023-02-13T12:38:47.058Z,32.45
2023-02-13T12:41:20.132Z,36.35
2023-02-13T12:43:55.423Z,30.17
2023-02-13T12:47:03.511Z,35.35
2023-02-13T12:49:48.291Z,37.05
2023-02-13T12:52:24.516Z,33.42
2023-02-13T12:55:16.015Z,34.38
2023-02-13T12:58:09.307Z,32.08
2023-02-13T13:00:57.535Z,33.70
2023-02-13T13:03:54.368Z,32.67
2023-02-13T13:06:32.878Z,37.60
2023-02-13T13:09:05.920Z,35.08
2023-02-13T13:11:56.185Z,35.65
2023-02-13T13:14:37.944Z,42.17
2023-02-13T13:17:23.153Z,35.47
2023-02-13T13:20:14.467Z,37.63
2023-02-13T13:22:55.416Z,33.25
2023-02-13T13:25:50.982Z,29.70
2023-02-13T13:28:26.076Z,30.73
2023-02-13T13:30:54.176Z,34.75
2023-02-13T13:33:24.248Z,37.72
2023-02-13T13:36:07.399Z,34.17
2023-02-13T13:38:59.943Z,34.75
2023-02-13T13:41:27.420Z,36.58
2023-02-13T13:46:38.388Z,34.63
2023-02-13T13:49:34.271Z,37.15
2023-02-13T13:52:23.786Z,35.00
2023-02-13T13:54:54.298Z,38.58
2023-02-13T13:57:23.913Z,36.28
2023-02-13T14:00:23.037Z,35.72
2023-02-13T14:03:09.868Z,40.25
2023-02-13T14:05:58.532Z,40.13
2023-02-13T14:08:40.346Z,42.75
2023-02-13T14:11:25.872Z,38.97
2023-02-13T14:13:52.766Z,40.90
2023-02-13T14:16:40.293Z,40.20
2023-02-13T14:19:28.908Z,38.95
2023-02-13T14:22:28.015Z,40.42
2023-02-13T14:24:56.722Z,47.38
2023-02-13T14:27:39.180Z,44.22
2023-02-13T14:30:26.733Z,48.97
2023-02-13T14:32:54.259Z,38.35
2023-02-13T14:35:27.236Z,39.97
2023-02-13T14:38:03.049Z,38.38
2023-02-13T14:40:47.278Z,35.67
2023-02-13T14:43:20.009Z,38.38
2023-02-13T14:45:55.752Z,39.75
2023-02-13T14:48:33.413Z,43.78
2023-02-13T14:51:00.992Z,42.55
2023-02-13T14:53:32.257Z,37.50
2023-02-13T14:56:13.032Z,42.53
2023-02-13T14:59:00.768Z,45.22
2023-02-13T15:01:48.248Z,45.22
2023-02-13T15:04:31.276Z,40.67
2023-02-13T15:07:00.138Z,45.05
2023-02-13T15:09:40.199Z,47.10
2023-02-13T15:12:28.252Z,43.40
2023-02-13T15:14:55.181Z,42.35
2023-02-13T15:17:29.916Z,42.97
2023-02-13T15:20:09.841Z,45.90
2023-02-13T15:22:39.899Z,51.85
2023-02-13T15:25:08.833Z,48.08
2023-02-13T15:27:43.230Z,45.15
2023-02-13T15:30:23.850Z,47.08
2023-02-13T15:32:55.965Z,50.78
2023-02-13T15:35:38.740Z,49.22
2023-02-13T15:38:34.603Z,48.33
2023-02-13T15:41:17.772Z,41.70
2023-02-13T15:43:47.289Z,46.50
2023-02-13T15:46:33.166Z,42.88
2023-02-13T15:49:16.624Z,49.38
2023-02-13T15:51:50.257Z,49.55
2023-02-13T15:54:21.036Z,44.55
2023-02-13T15:56:49.432Z,52.15
2023-02-13T15:59:19.371Z,55.53
2023-02-13T16:01:47.449Z,58.22
2023-02-13T16:04:17.574Z,59.90
2023-02-13T16:06:46.062Z,55.55
2023-02-13T16:09:32.773Z,53.50
2023-02-13T16:12:26.049Z,47.55
2023-02-13T16:15:02.248Z,59.95
2023-02-13T16:17:36.431Z,50.28
2023-02-13T16:20:08.203Z,47.67
2023-02-13T16:22:52.261Z,42.10
2023-02-13T16:25:22.118Z,47.83
2023-02-13T16:27:58.621Z,60.42
2023-02-13T16:30:34.227Z,58.80
2023-02-13T16:33:16.517Z,58.85
2023-02-13T16:36:16.299Z,63.63
2023-02-13T16:38:49.321Z,71.47
2023-02-13T16:41:22.083Z,62.53
2023-02-13T16:44:29.492Z,52.47
2023-02-13T16:47:01.448Z,54.08
2023-02-13T16:49:31.090Z,55.38
2023-02-13T16:52:28.509Z,66.38
2023-02-13T16:55:01.412Z,79.60
2023-02-13T16:57:31.385Z,64.13
2023-02-13T17:00:15.639Z,66.00
2023-02-13T17:02:42.400Z,70.30
2023-02-13T17:07:48.266Z,63.45
2023-02-13T17:10:36.408Z,50.83
2023-02-13T17:13:08.999Z,53.20
2023-02-13T17:15:35.740Z,69.38
2023-02-13T17:18:02.482Z,76.80
2023-02-13T17:23:05.752Z,75.53
2023-02-13T17:25:37.775Z,79.57
2023-02-13T17:28:13.420Z,85.47
2023-02-13T17:30:41.111Z,75.55
2023-02-13T17:33:13.388Z,79.40
2023-02-13T17:35:40.276Z,79.43
2023-02-13T17:38:09.336Z,79.68
2023-02-13T17:40:36.173Z,71.40
2023-02-13T17:45:32.397Z,58.55
2023-02-13T17:47:59.425Z,57.83
2023-02-13T17:50:29.023Z,71.50
2023-02-13T17:52:57.141Z,69.78
2023-02-13T17:55:29.445Z,77.60
2023-02-13T17:57:57.776Z,76.55
2023-02-13T18:00:28.012Z,82.53
2023-02-13T18:02:55.532Z,74.60
2023-02-13T18:05:22.789Z,67.63
2023-02-13T18:07:49.586Z,67.63
2023-02-13T18:10:17.877Z,69.35
2023-02-13T18:12:45.754Z,70.15
2023-02-13T18:15:13.323Z,68.05
2023-02-13T18:17:40.501Z,70.60
2023-02-13T18:20:09.634Z,63.65
2023-02-13T18:22:36.436Z,76.63
2023-02-13T18:27:30.859Z,69.78
2023-02-13T18:32:25.032Z,85.80
2023-02-13T18:34:52.105Z,96.90
2023-02-13T18:37:19.728Z,78.20
2023-02-13T18:39:46.689Z,73.03
2023-02-13T18:42:13.447Z,86.95
2023-02-13T18:47:07.312Z,77.97
2023-02-13T18:49:34.325Z,94.95
2023-02-13T18:52:02.278Z,84.10
2023-02-13T18:54:29.405Z,79.15
2023-02-13T18:56:56.300Z,61.97
2023-02-13T18:59:23.543Z,67.22
2023-02-13T19:01:50.770Z,77.55
2023-02-13T19:04:17.844Z,87.03
2023-02-13T19:06:44.877Z,73.07
2023-02-13T19:09:11.896Z,72.97
2023-02-13T19:11:39.443Z,73.13
2023-02-13T19:14:06.819Z,73.90
2023-02-13T19:16:35.184Z,83.22
2023-02-13T19:19:04.373Z,89.38
2023-02-13T19:21:34.399Z,76.13
2023-02-13T19:24:03.696Z,96.43
2023-02-13T19:26:30.665Z,89.05
2023-02-13T19:28:58.308Z,91.32
2023-02-13T19:31:28.282Z,82.93
2023-02-13T19:33:55.433Z,90.07
2023-02-13T19:36:25.683Z,90.90
2023-02-13T19:38:58.190Z,84.38
2023-02-13T19:41:25.791Z,92.57
2023-02-13T19:43:55.808Z,83.60
2023-02-13T19:46:25.667Z,82.32
2023-02-13T19:48:53.085Z,82.20
2023-02-13T19:51:25.747Z,81.13
2023-02-13T19:53:57.739Z,71.95
2023-02-13T19:56:26.311Z,81.80
2023-02-13T19:58:54.262Z,77.18
2023-02-13T20:01:22.796Z,73.20
2023-02-13T20:03:49.721Z,79.78
2023-02-13T20:06:20.078Z,64.00
2023-02-13T20:08:47.098Z,90.57
2023-02-13T20:11:15.664Z,81.25
2023-02-13T20:13:42.526Z,72.68
2023-02-13T20:16:12.120Z,85.60
2023-02-13T20:18:39.552Z,80.38
2023-02-13T20:21:14.440Z,79.78
2023-02-13T20:23:42.827Z,78.10
2023-02-13T20:26:13.715Z,69.20
2023-02-13T20:28:41.528Z,81.03
2023-02-13T20:31:10.528Z,77.40
2023-02-13T20:33:39.099Z,79.93
2023-02-13T20:36:26.988Z,78.53
2023-02-13T20:38:58.209Z,76.28
2023-02-13T20:41:27.078Z,83.05
2023-02-13T20:44:01.740Z,75.80
2023-02-13T20:46:37.129Z,77.47
2023-02-13T20:49:04.567Z,80.38
2023-02-13T20:51:31.666Z,76.30
2023-02-13T20:54:00.177Z,92.90
2023-02-13T20:56:28.045Z,96.97
2023-02-13T20:58:57.580Z,85.78
2023-02-13T21:01:37.165Z,79.38
2023-02-13T21:04:03.964Z,82.13
2023-02-13T21:06:34.761Z,145.15
2023-02-13T21:09:03.319Z,86.28
2023-02-13T21:11:30.483Z,80.95
2023-02-13T21:13:58.090Z,72.90
2023-02-13T21:16:27.833Z,103.45
2023-02-13T21:18:56.831Z,84.53
2023-02-13T21:21:26.341Z,84.85
2023-02-13T21:23:58.245Z,72.97
2023-02-13T21:26:25.848Z,100.10
2023-02-13T21:28:52.521Z,87.28
2023-02-13T21:33:47.590Z,66.38
2023-02-13T21:36:14.434Z,100.45
2023-02-13T21:38:41.750Z,104.47
2023-02-13T21:41:13.787Z,68.68
2023-02-13T21:43:42.138Z,55.97
2023-02-13T21:46:11.283Z,60.20
2023-02-13T21:48:38.883Z,54.30
2023-02-13T21:51:11.400Z,51.45
2023-02-13T21:53:39.018Z,58.20
2023-02-13T21:56:07.801Z,80.88
2023-02-13T21:58:35.664Z,58.90
2023-02-13T22:01:14.141Z,64.40
2023-02-13T22:03:48.061Z,60.58
2023-02-13T22:06:16.624Z,69.88
2023-02-13T22:08:43.718Z,63.63
2023-02-13T22:11:11.005Z,55.97
2023-02-13T22:13:39.044Z,53.53
2023-02-13T22:16:07.042Z,53.90
2023-02-13T22:18:40.239Z,60.03
2023-02-13T22:21:15.336Z,51.47
2023-02-13T22:23:43.425Z,65.30
2023-02-13T22:26:29.057Z,61.03
2023-02-13T22:28:59.672Z,132.45
2023-02-13T22:31:26.511Z,129.20
2023-02-13T22:34:03.278Z,144.48
2023-02-13T22:36:38.775Z,61.42
2023-02-13T22:39:06.742Z,153.95
2023-02-13T22:41:33.805Z,57.53
2023-02-13T22:44:00.620Z,59.67
2023-02-13T22:46:30.703Z,128.88
2023-02-13T22:48:57.940Z,73.18
2023-02-13T22:51:35.696Z,54.53
2023-02-13T22:54:04.027Z,64.97
2023-02-13T22:56:31.428Z,55.33
2023-02-13T22:58:59.057Z,59.13
2023-02-13T23:01:27.010Z,59.13
2023-02-13T23:03:54.876Z,55.35
2023-02-13T23:06:22.080Z,49.60
2023-02-13T23:08:52.355Z,59.35
2023-02-13T23:11:40.215Z,47.20
2023-02-13T23:14:07.234Z,69.72
2023-02-13T23:16:53.860Z,90.05
2023-02-13T23:19:21.309Z,46.28
2023-02-13T23:21:49.069Z,45.35
2023-02-13T23:24:16.071Z,66.07
2023-02-13T23:26:43.246Z,167.65
2023-02-13T23:29:10.041Z,43.60
2023-02-13T23:31:36.985Z,46.83
2023-02-13T23:34:03.819Z,62.17
2023-02-13T23:38:57.094Z,79.13
2023-02-13T23:43:50.403Z,40.72
2023-02-13T23:48:45.789Z,48.10
2023-02-13T23:51:12.467Z,43.45
2023-02-13T23:56:06.063Z,38.83
2023-02-13T23:58:32.784Z,42.25
